sensor_id;sensor_type;location;lat;lon;timestamp;P1;durP1;ratioP1;P2;durP2;ratioP2
65279;SDS011;51878;55.748;48.742;2023-12-28T00:01:41;7.60;;;4.60;;
65279;SDS011;51878;55.748;48.742;2023-12-28T00:06:44;5.75;;;3.35;;
65279;SDS011;51878;55.748;48.742;2023-12-28T00:11:47;6.85;;;4.50;;
65279;SDS011;51878;55.748;48.742;2023-12-28T00:16:50;5.60;;;3.63;;
65279;SDS011;51878;55.748;48.742;2023-12-28T00:21:52;7.25;;;4.20;;
65279;SDS011;51878;55.748;48.742;2023-12-28T00:26:55;7.32;;;4.72;;
65279;SDS011;51878;55.748;48.742;2023-12-28T00:31:57;4.38;;;3.08;;
65279;SDS011;51878;55.748;48.742;2023-12-28T00:36:59;6.70;;;4.45;;
65279;SDS011;51878;55.748;48.742;2023-12-28T00:42:01;7.60;;;4.35;;
65279;SDS011;51878;55.748;48.742;2023-12-28T00:47:05;7.25;;;3.65;;
65279;SDS011;51878;55.748;48.742;2023-12-28T00:52:08;4.57;;;2.22;;
65279;SDS011;51878;55.748;48.742;2023-12-28T00:57:10;4.90;;;2.83;;
65279;SDS011;51878;55.748;48.742;2023-12-28T01:02:13;4.43;;;3.13;;
65279;SDS011;51878;55.748;48.742;2023-12-28T01:07:15;5.65;;;3.30;;
65279;SDS011;51878;55.748;48.742;2023-12-28T01:12:17;3.67;;;2.85;;
65279;SDS011;51878;55.748;48.742;2023-12-28T01:17:20;4.55;;;2.95;;
65279;SDS011;51878;55.748;48.742;2023-12-28T01:22:22;6.75;;;4.35;;
65279;SDS011;51878;55.748;48.742;2023-12-28T01:27:24;10.98;;;6.18;;
65279;SDS011;51878;55.748;48.742;2023-12-28T01:32:27;9.65;;;5.00;;
65279;SDS011;51878;55.748;48.742;2023-12-28T01:37:29;4.95;;;3.20;;
65279;SDS011;51878;55.748;48.742;2023-12-28T01:42:33;7.25;;;4.65;;
65279;SDS011;51878;55.748;48.742;2023-12-28T01:47:35;3.60;;;2.58;;
65279;SDS011;51878;55.748;48.742;2023-12-28T01:52:37;3.88;;;3.05;;
65279;SDS011;51878;55.748;48.742;2023-12-28T01:57:40;6.68;;;4.43;;
65279;SDS011;51878;55.748;48.742;2023-12-28T02:02:43;7.30;;;4.53;;
65279;SDS011;51878;55.748;48.742;2023-12-28T02:07:47;7.03;;;3.75;;
65279;SDS011;51878;55.748;48.742;2023-12-28T02:12:49;4.75;;;3.65;;
65279;SDS011;51878;55.748;48.742;2023-12-28T02:17:58;9.85;;;6.32;;
65279;SDS011;51878;55.748;48.742;2023-12-28T02:23:07;8.90;;;5.75;;
65279;SDS011;51878;55.748;48.742;2023-12-28T02:28:11;11.60;;;6.18;;
65279;SDS011;51878;55.748;48.742;2023-12-28T02:33:29;10.15;;;5.65;;
65279;SDS011;51878;55.748;48.742;2023-12-28T02:38:38;8.48;;;5.93;;
65279;SDS011;51878;55.748;48.742;2023-12-28T02:43:43;9.75;;;6.43;;
65279;SDS011;51878;55.748;48.742;2023-12-28T02:48:45;10.40;;;6.00;;
65279;SDS011;51878;55.748;48.742;2023-12-28T02:53:48;11.50;;;6.85;;
65279;SDS011;51878;55.748;48.742;2023-12-28T02:58:50;11.13;;;6.28;;
65279;SDS011;51878;55.748;48.742;2023-12-28T03:03:52;11.13;;;6.65;;
65279;SDS011;51878;55.748;48.742;2023-12-28T03:08:54;8.57;;;5.63;;
65279;SDS011;51878;55.748;48.742;2023-12-28T03:13:57;10.45;;;6.15;;
65279;SDS011;51878;55.748;48.742;2023-12-28T03:18:59;9.00;;;6.32;;
65279;SDS011;51878;55.748;48.742;2023-12-28T03:24:02;11.48;;;6.72;;
65279;SDS011;51878;55.748;48.742;2023-12-28T03:29:07;13.15;;;6.68;;
65279;SDS011;51878;55.748;48.742;2023-12-28T03:34:10;10.82;;;6.25;;
65279;SDS011;51878;55.748;48.742;2023-12-28T03:39:12;10.05;;;6.60;;
65279;SDS011;51878;55.748;48.742;2023-12-28T03:44:14;12.55;;;6.22;;
65279;SDS011;51878;55.748;48.742;2023-12-28T03:49:17;9.02;;;6.03;;
65279;SDS011;51878;55.748;48.742;2023-12-28T03:54:20;8.73;;;5.43;;
65279;SDS011;51878;55.748;48.742;2023-12-28T03:59:22;6.93;;;4.50;;
65279;SDS011;51878;55.748;48.742;2023-12-28T04:04:24;7.97;;;5.07;;
65279;SDS011;51878;55.748;48.742;2023-12-28T04:09:27;7.00;;;4.28;;
65279;SDS011;51878;55.748;48.742;2023-12-28T04:14:29;5.78;;;3.70;;
65279;SDS011;51878;55.748;48.742;2023-12-28T04:19:31;6.30;;;3.70;;
65279;SDS011;51878;55.748;48.742;2023-12-28T04:24:34;4.72;;;3.47;;
65279;SDS011;51878;55.748;48.742;2023-12-28T04:29:36;4.38;;;3.65;;
65279;SDS011;51878;55.748;48.742;2023-12-28T04:34:38;7.97;;;3.95;;
65279;SDS011;51878;55.748;48.742;2023-12-28T04:39:41;5.65;;;4.00;;
65279;SDS011;51878;55.748;48.742;2023-12-28T04:44:43;4.97;;;3.50;;
65279;SDS011;51878;55.748;48.742;2023-12-28T04:49:45;5.38;;;3.53;;
65279;SDS011;51878;55.748;48.742;2023-12-28T04:54:48;4.47;;;3.28;;
65279;SDS011;51878;55.748;48.742;2023-12-28T04:59:50;5.97;;;3.92;;
65279;SDS011;51878;55.748;48.742;2023-12-28T05:04:53;6.22;;;3.60;;
65279;SDS011;51878;55.748;48.742;2023-12-28T05:09:55;4.65;;;2.92;;
65279;SDS011;51878;55.748;48.742;2023-12-28T05:14:58;4.45;;;3.35;;
65279;SDS011;51878;55.748;48.742;2023-12-28T05:20:00;5.97;;;2.92;;
65279;SDS011;51878;55.748;48.742;2023-12-28T05:25:04;3.53;;;2.63;;
65279;SDS011;51878;55.748;48.742;2023-12-28T05:30:07;4.03;;;2.78;;
65279;SDS011;51878;55.748;48.742;2023-12-28T05:35:09;4.30;;;3.20;;
65279;SDS011;51878;55.748;48.742;2023-12-28T05:40:12;4.47;;;3.20;;
65279;SDS011;51878;55.748;48.742;2023-12-28T05:45:14;5.15;;;3.00;;
65279;SDS011;51878;55.748;48.742;2023-12-28T05:50:17;4.18;;;2.78;;
65279;SDS011;51878;55.748;48.742;2023-12-28T05:55:19;3.83;;;2.67;;
65279;SDS011;51878;55.748;48.742;2023-12-28T06:00:21;4.15;;;2.83;;
65279;SDS011;51878;55.748;48.742;2023-12-28T06:05:24;3.00;;;2.13;;
65279;SDS011;51878;55.748;48.742;2023-12-28T06:10:26;3.13;;;2.28;;
65279;SDS011;51878;55.748;48.742;2023-12-28T06:15:28;2.95;;;1.85;;
65279;SDS011;51878;55.748;48.742;2023-12-28T06:20:31;2.30;;;2.00;;
65279;SDS011;51878;55.748;48.742;2023-12-28T06:25:33;2.72;;;1.85;;
65279;SDS011;51878;55.748;48.742;2023-12-28T06:30:35;3.58;;;2.10;;
65279;SDS011;51878;55.748;48.742;2023-12-28T06:35:38;3.15;;;2.20;;
65279;SDS011;51878;55.748;48.742;2023-12-28T06:40:40;4.88;;;1.90;;
65279;SDS011;51878;55.748;48.742;2023-12-28T06:45:42;2.20;;;2.00;;
65279;SDS011;51878;55.748;48.742;2023-12-28T06:50:45;4.47;;;2.88;;
65279;SDS011;51878;55.748;48.742;2023-12-28T06:55:47;4.38;;;2.50;;
65279;SDS011;51878;55.748;48.742;2023-12-28T07:00:49;4.90;;;2.72;;
65279;SDS011;51878;55.748;48.742;2023-12-28T07:05:51;4.15;;;3.00;;
65279;SDS011;51878;55.748;48.742;2023-12-28T07:10:54;3.78;;;2.92;;
65279;SDS011;51878;55.748;48.742;2023-12-28T07:15:56;4.80;;;2.42;;
65279;SDS011;51878;55.748;48.742;2023-12-28T07:21:00;4.95;;;2.60;;
65279;SDS011;51878;55.748;48.742;2023-12-28T07:26:02;4.10;;;2.40;;
65279;SDS011;51878;55.748;48.742;2023-12-28T07:31:05;7.18;;;4.45;;
65279;SDS011;51878;55.748;48.742;2023-12-28T07:36:08;2.92;;;2.28;;
65279;SDS011;51878;55.748;48.742;2023-12-28T07:41:10;3.10;;;2.38;;
65279;SDS011;51878;55.748;48.742;2023-12-28T07:46:12;5.10;;;2.75;;
65279;SDS011;51878;55.748;48.742;2023-12-28T07:51:15;2.97;;;2.25;;
65279;SDS011;51878;55.748;48.742;2023-12-28T07:56:17;3.50;;;2.55;;
65279;SDS011;51878;55.748;48.742;2023-12-28T08:01:19;4.03;;;2.55;;
65279;SDS011;51878;55.748;48.742;2023-12-28T08:06:24;3.83;;;2.47;;
65279;SDS011;51878;55.748;48.742;2023-12-28T08:11:26;3.28;;;2.40;;
65279;SDS011;51878;55.748;48.742;2023-12-28T08:16:29;3.30;;;2.50;;
65279;SDS011;51878;55.748;48.742;2023-12-28T08:21:32;3.80;;;2.03;;
65279;SDS011;51878;55.748;48.742;2023-12-28T08:26:34;3.83;;;2.30;;
65279;SDS011;51878;55.748;48.742;2023-12-28T08:31:36;2.50;;;1.90;;
65279;SDS011;51878;55.748;48.742;2023-12-28T08:36:39;2.42;;;2.05;;
65279;SDS011;51878;55.748;48.742;2023-12-28T08:41:41;3.10;;;2.38;;
65279;SDS011;51878;55.748;48.742;2023-12-28T08:46:44;3.38;;;2.30;;
65279;SDS011;51878;55.748;48.742;2023-12-28T08:51:47;3.20;;;2.28;;
65279;SDS011;51878;55.748;48.742;2023-12-28T08:56:50;8.77;;;5.07;;
65279;SDS011;51878;55.748;48.742;2023-12-28T09:01:54;3.67;;;2.42;;
65279;SDS011;51878;55.748;48.742;2023-12-28T09:06:56;3.47;;;2.53;;
65279;SDS011;51878;55.748;48.742;2023-12-28T09:11:59;2.85;;;2.33;;
65279;SDS011;51878;55.748;48.742;2023-12-28T09:17:01;3.85;;;2.33;;
65279;SDS011;51878;55.748;48.742;2023-12-28T09:22:03;3.08;;;2.35;;
65279;SDS011;51878;55.748;48.742;2023-12-28T09:27:06;3.38;;;2.47;;
65279;SDS011;51878;55.748;48.742;2023-12-28T09:32:09;2.70;;;1.83;;
65279;SDS011;51878;55.748;48.742;2023-12-28T09:37:13;1.92;;;1.73;;
65279;SDS011;51878;55.748;48.742;2023-12-28T09:42:17;3.90;;;2.33;;
65279;SDS011;51878;55.748;48.742;2023-12-28T09:47:27;4.18;;;2.30;;
65279;SDS011;51878;55.748;48.742;2023-12-28T09:52:30;4.88;;;2.22;;
65279;SDS011;51878;55.748;48.742;2023-12-28T09:57:32;2.22;;;2.03;;
65279;SDS011;51878;55.748;48.742;2023-12-28T10:02:35;3.92;;;2.50;;
65279;SDS011;51878;55.748;48.742;2023-12-28T10:07:41;3.60;;;2.55;;
65279;SDS011;51878;55.748;48.742;2023-12-28T10:12:49;3.30;;;1.95;;
65279;SDS011;51878;55.748;48.742;2023-12-28T10:17:53;3.30;;;1.80;;
65279;SDS011;51878;55.748;48.742;2023-12-28T10:22:55;2.60;;;2.00;;
65279;SDS011;51878;55.748;48.742;2023-12-28T10:28:03;3.58;;;2.47;;
65279;SDS011;51878;55.748;48.742;2023-12-28T10:33:08;2.05;;;1.85;;
65279;SDS011;51878;55.748;48.742;2023-12-28T10:38:10;4.30;;;1.92;;
65279;SDS011;51878;55.748;48.742;2023-12-28T10:43:19;6.38;;;2.17;;
65279;SDS011;51878;55.748;48.742;2023-12-28T10:48:28;3.63;;;2.47;;
65279;SDS011;51878;55.748;48.742;2023-12-28T11:04:40;2.95;;;1.92;;
65279;SDS011;51878;55.748;48.742;2023-12-28T11:09:45;3.47;;;2.20;;
65279;SDS011;51878;55.748;48.742;2023-12-28T11:14:47;4.05;;;2.10;;
65279;SDS011;51878;55.748;48.742;2023-12-28T11:19:53;3.08;;;2.53;;
65279;SDS011;51878;55.748;48.742;2023-12-28T11:24:56;2.65;;;1.85;;
65279;SDS011;51878;55.748;48.742;2023-12-28T11:29:58;3.10;;;2.13;;
65279;SDS011;51878;55.748;48.742;2023-12-28T11:35:01;2.55;;;1.95;;
65279;SDS011;51878;55.748;48.742;2023-12-28T11:40:11;3.28;;;2.28;;
65279;SDS011;51878;55.748;48.742;2023-12-28T11:45:19;2.38;;;1.80;;
65279;SDS011;51878;55.748;48.742;2023-12-28T11:50:24;2.08;;;1.60;;
65279;SDS011;51878;55.748;48.742;2023-12-28T11:55:26;2.35;;;1.95;;
65279;SDS011;51878;55.748;48.742;2023-12-28T12:00:28;3.55;;;1.73;;
65279;SDS011;51878;55.748;48.742;2023-12-28T12:05:30;1.75;;;1.63;;
65279;SDS011;51878;55.748;48.742;2023-12-28T12:10:33;1.95;;;1.55;;
65279;SDS011;51878;55.748;48.742;2023-12-28T12:15:35;3.67;;;2.10;;
65279;SDS011;51878;55.748;48.742;2023-12-28T12:20:38;2.75;;;1.70;;
65279;SDS011;51878;55.748;48.742;2023-12-28T12:25:41;3.78;;;2.10;;
65279;SDS011;51878;55.748;48.742;2023-12-28T12:30:53;1.83;;;1.55;;
65279;SDS011;51878;55.748;48.742;2023-12-28T12:36:00;2.75;;;1.88;;
65279;SDS011;51878;55.748;48.742;2023-12-28T12:41:02;2.08;;;1.75;;
65279;SDS011;51878;55.748;48.742;2023-12-28T12:46:07;1.60;;;1.50;;
65279;SDS011;51878;55.748;48.742;2023-12-28T12:51:10;1.40;;;1.30;;
65279;SDS011;51878;55.748;48.742;2023-12-28T12:56:13;2.00;;;1.80;;
65279;SDS011;51878;55.748;48.742;2023-12-28T13:01:16;3.33;;;2.40;;
65279;SDS011;51878;55.748;48.742;2023-12-28T13:06:18;2.33;;;1.85;;
65279;SDS011;51878;55.748;48.742;2023-12-28T13:11:24;1.98;;;1.63;;
65279;SDS011;51878;55.748;48.742;2023-12-28T13:16:28;2.20;;;1.73;;
65279;SDS011;51878;55.748;48.742;2023-12-28T13:21:30;1.70;;;1.60;;
65279;SDS011;51878;55.748;48.742;2023-12-28T13:26:32;2.35;;;1.73;;
65279;SDS011;51878;55.748;48.742;2023-12-28T13:31:35;1.35;;;1.25;;
65279;SDS011;51878;55.748;48.742;2023-12-28T13:36:37;2.15;;;1.58;;
65279;SDS011;51878;55.748;48.742;2023-12-28T13:41:40;1.70;;;1.60;;
65279;SDS011;51878;55.748;48.742;2023-12-28T13:46:42;2.40;;;1.60;;
65279;SDS011;51878;55.748;48.742;2023-12-28T13:51:45;2.03;;;1.70;;
65279;SDS011;51878;55.748;48.742;2023-12-28T13:56:48;2.38;;;1.42;;
65279;SDS011;51878;55.748;48.742;2023-12-28T14:01:50;1.60;;;1.48;;
65279;SDS011;51878;55.748;48.742;2023-12-28T14:06:53;1.60;;;1.35;;
65279;SDS011;51878;55.748;48.742;2023-12-28T14:11:55;2.10;;;1.77;;
65279;SDS011;51878;55.748;48.742;2023-12-28T14:16:57;0.85;;;0.85;;
65279;SDS011;51878;55.748;48.742;2023-12-28T14:21:59;1.73;;;1.00;;
65279;SDS011;51878;55.748;48.742;2023-12-28T14:27:02;2.25;;;1.52;;
65279;SDS011;51878;55.748;48.742;2023-12-28T14:32:05;1.17;;;1.08;;
65279;SDS011;51878;55.748;48.742;2023-12-28T14:37:08;1.75;;;1.25;;
65279;SDS011;51878;55.748;48.742;2023-12-28T14:42:10;1.70;;;1.30;;
65279;SDS011;51878;55.748;48.742;2023-12-28T14:47:12;1.63;;;1.35;;
65279;SDS011;51878;55.748;48.742;2023-12-28T14:52:15;1.52;;;1.42;;
65279;SDS011;51878;55.748;48.742;2023-12-28T14:57:17;1.88;;;1.50;;
65279;SDS011;51878;55.748;48.742;2023-12-28T15:02:19;10.77;;;1.85;;
65279;SDS011;51878;55.748;48.742;2023-12-28T15:07:21;1.65;;;1.55;;
65279;SDS011;51878;55.748;48.742;2023-12-28T15:12:24;3.25;;;1.60;;
65279;SDS011;51878;55.748;48.742;2023-12-28T15:17:26;1.33;;;1.08;;
65279;SDS011;51878;55.748;48.742;2023-12-28T15:22:29;1.55;;;1.25;;
65279;SDS011;51878;55.748;48.742;2023-12-28T15:27:31;2.22;;;1.40;;
65279;SDS011;51878;55.748;48.742;2023-12-28T15:32:34;1.55;;;1.42;;
65279;SDS011;51878;55.748;48.742;2023-12-28T15:37:37;4.20;;;1.38;;
65279;SDS011;51878;55.748;48.742;2023-12-28T15:42:40;1.35;;;1.08;;
65279;SDS011;51878;55.748;48.742;2023-12-28T15:47:42;1.45;;;1.35;;
65279;SDS011;51878;55.748;48.742;2023-12-28T15:52:44;1.30;;;1.20;;
65279;SDS011;51878;55.748;48.742;2023-12-28T15:57:46;0.80;;;0.80;;
65279;SDS011;51878;55.748;48.742;2023-12-28T16:02:49;1.25;;;1.15;;
65279;SDS011;51878;55.748;48.742;2023-12-28T16:07:51;1.60;;;0.82;;
65279;SDS011;51878;55.748;48.742;2023-12-28T16:12:53;1.35;;;1.25;;
65279;SDS011;51878;55.748;48.742;2023-12-28T16:17:56;1.27;;;1.05;;
65279;SDS011;51878;55.748;48.742;2023-12-28T16:22:59;4.15;;;0.95;;
65279;SDS011;51878;55.748;48.742;2023-12-28T16:28:02;2.35;;;1.35;;
65279;SDS011;51878;55.748;48.742;2023-12-28T16:33:06;1.60;;;1.15;;
65279;SDS011;51878;55.748;48.742;2023-12-28T16:38:08;1.00;;;0.95;;
65279;SDS011;51878;55.748;48.742;2023-12-28T16:43:11;1.40;;;1.30;;
65279;SDS011;51878;55.748;48.742;2023-12-28T16:48:13;0.95;;;0.90;;
65279;SDS011;51878;55.748;48.742;2023-12-28T16:53:15;1.15;;;1.08;;
65279;SDS011;51878;55.748;48.742;2023-12-28T16:58:17;4.07;;;1.50;;
65279;SDS011;51878;55.748;48.742;2023-12-28T17:03:22;4.18;;;1.60;;
65279;SDS011;51878;55.748;48.742;2023-12-28T17:08:24;1.98;;;1.80;;
65279;SDS011;51878;55.748;48.742;2023-12-28T17:13:27;1.38;;;1.27;;
65279;SDS011;51878;55.748;48.742;2023-12-28T17:18:29;4.40;;;1.70;;
65279;SDS011;51878;55.748;48.742;2023-12-28T17:23:34;2.28;;;1.20;;
65279;SDS011;51878;55.748;48.742;2023-12-28T17:28:45;3.17;;;1.58;;
65279;SDS011;51878;55.748;48.742;2023-12-28T17:33:52;1.25;;;1.15;;
65279;SDS011;51878;55.748;48.742;2023-12-28T17:38:55;2.28;;;1.38;;
65279;SDS011;51878;55.748;48.742;2023-12-28T17:44:01;3.25;;;2.22;;
65279;SDS011;51878;55.748;48.742;2023-12-28T17:49:10;2.45;;;1.83;;
65279;SDS011;51878;55.748;48.742;2023-12-28T17:54:16;1.80;;;1.60;;
65279;SDS011;51878;55.748;48.742;2023-12-28T17:59:18;3.60;;;1.95;;
65279;SDS011;51878;55.748;48.742;2023-12-28T18:04:20;4.05;;;2.20;;
65279;SDS011;51878;55.748;48.742;2023-12-28T18:09:23;1.90;;;1.27;;
65279;SDS011;51878;55.748;48.742;2023-12-28T18:14:25;2.83;;;1.65;;
65279;SDS011;51878;55.748;48.742;2023-12-28T18:19:27;4.15;;;2.22;;
65279;SDS011;51878;55.748;48.742;2023-12-28T18:24:30;2.53;;;2.25;;
65279;SDS011;51878;55.748;48.742;2023-12-28T18:29:36;3.97;;;1.85;;
65279;SDS011;51878;55.748;48.742;2023-12-28T18:34:38;4.63;;;1.75;;
65279;SDS011;51878;55.748;48.742;2023-12-28T18:39:47;2.38;;;1.70;;
65279;SDS011;51878;55.748;48.742;2023-12-28T18:44:49;2.60;;;2.15;;
65279;SDS011;51878;55.748;48.742;2023-12-28T18:49:51;2.15;;;1.52;;
65279;SDS011;51878;55.748;48.742;2023-12-28T18:54:54;2.58;;;2.15;;
65279;SDS011;51878;55.748;48.742;2023-12-28T18:59:57;2.50;;;1.88;;
65279;SDS011;51878;55.748;48.742;2023-12-28T19:05:00;1.50;;;1.40;;
65279;SDS011;51878;55.748;48.742;2023-12-28T19:10:04;3.42;;;2.50;;
65279;SDS011;51878;55.748;48.742;2023-12-28T19:15:08;1.92;;;1.60;;
65279;SDS011;51878;55.748;48.742;2023-12-28T19:20:10;4.45;;;2.08;;
65279;SDS011;51878;55.748;48.742;2023-12-28T19:25:14;2.83;;;2.25;;
65279;SDS011;51878;55.748;48.742;2023-12-28T19:30:19;2.58;;;2.22;;
65279;SDS011;51878;55.748;48.742;2023-12-28T19:35:21;2.88;;;2.33;;
65279;SDS011;51878;55.748;48.742;2023-12-28T19:40:23;4.07;;;2.45;;
65279;SDS011;51878;55.748;48.742;2023-12-28T19:45:26;2.00;;;1.77;;
65279;SDS011;51878;55.748;48.742;2023-12-28T19:50:28;3.17;;;2.17;;
65279;SDS011;51878;55.748;48.742;2023-12-28T19:55:30;2.33;;;1.75;;
65279;SDS011;51878;55.748;48.742;2023-12-28T20:00:32;1.67;;;1.55;;
65279;SDS011;51878;55.748;48.742;2023-12-28T20:05:34;2.38;;;1.80;;
65279;SDS011;51878;55.748;48.742;2023-12-28T20:10:37;5.10;;;2.72;;
65279;SDS011;51878;55.748;48.742;2023-12-28T20:15:39;3.90;;;2.45;;
65279;SDS011;51878;55.748;48.742;2023-12-28T20:20:43;3.95;;;1.88;;
65279;SDS011;51878;55.748;48.742;2023-12-28T20:25:46;2.45;;;2.17;;
65279;SDS011;51878;55.748;48.742;2023-12-28T20:30:48;4.80;;;3.45;;
65279;SDS011;51878;55.748;48.742;2023-12-28T20:35:50;5.65;;;3.67;;
65279;SDS011;51878;55.748;48.742;2023-12-28T20:40:53;3.08;;;2.47;;
65279;SDS011;51878;55.748;48.742;2023-12-28T20:45:55;2.78;;;2.20;;
65279;SDS011;51878;55.748;48.742;2023-12-28T20:50:57;5.10;;;1.85;;
65279;SDS011;51878;55.748;48.742;2023-12-28T20:55:59;4.63;;;2.55;;
65279;SDS011;51878;55.748;48.742;2023-12-28T21:01:02;5.57;;;2.65;;
65279;SDS011;51878;55.748;48.742;2023-12-28T21:06:04;2.10;;;1.67;;
65279;SDS011;51878;55.748;48.742;2023-12-28T21:11:06;2.80;;;2.10;;
65279;SDS011;51878;55.748;48.742;2023-12-28T21:16:09;3.83;;;2.10;;
65279;SDS011;51878;55.748;48.742;2023-12-28T21:21:11;3.03;;;2.65;;
65279;SDS011;51878;55.748;48.742;2023-12-28T21:26:13;4.00;;;2.72;;
65279;SDS011;51878;55.748;48.742;2023-12-28T21:31:16;1.55;;;1.40;;
65279;SDS011;51878;55.748;48.742;2023-12-28T21:36:18;2.45;;;2.05;;
65279;SDS011;51878;55.748;48.742;2023-12-28T21:41:20;1.50;;;1.35;;
65279;SDS011;51878;55.748;48.742;2023-12-28T21:46:23;1.40;;;1.25;;
65279;SDS011;51878;55.748;48.742;2023-12-28T21:51:25;2.45;;;1.70;;
65279;SDS011;51878;55.748;48.742;2023-12-28T21:56:27;3.00;;;2.05;;
65279;SDS011;51878;55.748;48.742;2023-12-28T22:01:29;2.92;;;1.95;;
65279;SDS011;51878;55.748;48.742;2023-12-28T22:06:32;3.22;;;2.17;;
65279;SDS011;51878;55.748;48.742;2023-12-28T22:11:34;2.75;;;1.98;;
65279;SDS011;51878;55.748;48.742;2023-12-28T22:16:37;3.78;;;1.95;;
65279;SDS011;51878;55.748;48.742;2023-12-28T22:21:40;3.10;;;2.28;;
65279;SDS011;51878;55.748;48.742;2023-12-28T22:26:42;2.97;;;2.15;;
65279;SDS011;51878;55.748;48.742;2023-12-28T22:31:46;2.70;;;1.95;;
65279;SDS011;51878;55.748;48.742;2023-12-28T22:36:50;4.53;;;1.45;;
65279;SDS011;51878;55.748;48.742;2023-12-28T22:41:56;4.82;;;3.08;;
65279;SDS011;51878;55.748;48.742;2023-12-28T22:46:58;3.05;;;1.80;;
65279;SDS011;51878;55.748;48.742;2023-12-28T22:52:00;5.03;;;2.28;;
65279;SDS011;51878;55.748;48.742;2023-12-28T22:57:05;2.55;;;1.73;;
65279;SDS011;51878;55.748;48.742;2023-12-28T23:02:07;4.72;;;2.75;;
65279;SDS011;51878;55.748;48.742;2023-12-28T23:07:09;2.17;;;1.70;;
65279;SDS011;51878;55.748;48.742;2023-12-28T23:12:12;3.95;;;2.95;;
65279;SDS011;51878;55.748;48.742;2023-12-28T23:17:14;5.15;;;2.40;;
65279;SDS011;51878;55.748;48.742;2023-12-28T23:22:16;1.35;;;1.25;;
65279;SDS011;51878;55.748;48.742;2023-12-28T23:27:19;2.15;;;1.95;;
65279;SDS011;51878;55.748;48.742;2023-12-28T23:32:21;5.07;;;3.10;;
65279;SDS011;51878;55.748;48.742;2023-12-28T23:37:23;3.00;;;1.92;;
65279;SDS011;51878;55.748;48.742;2023-12-28T23:42:25;4.38;;;3.03;;
65279;SDS011;51878;55.748;48.742;2023-12-28T23:47:28;4.93;;;2.53;;
65279;SDS011;51878;55.748;48.742;2023-12-28T23:52:30;4.30;;;2.75;;
65279;SDS011;51878;55.748;48.742;2023-12-28T23:57:32;3.95;;;2.95;;
